createdAt,value
2023-03-26T00:01:46.742Z,98464.52
2023-03-26T00:04:50.085Z,98464.42
2023-03-26T00:07:53.141Z,98465.13
2023-03-26T00:10:56.094Z,98464.05
2023-03-26T00:13:59.105Z,98462.94
2023-03-26T00:17:02.459Z,98461.14
2023-03-26T00:20:05.694Z,98472.31
2023-03-26T00:23:09.040Z,98470.63
2023-03-26T00:26:11.947Z,98471.20
2023-03-26T00:29:15.728Z,98471.64
2023-03-26T00:32:18.345Z,98476.57
2023-03-26T00:35:22.562Z,98471.46
2023-03-26T00:38:25.895Z,98465.92
2023-03-26T00:41:31.156Z,98468.10
2023-03-26T00:44:34.946Z,98461.23
2023-03-26T00:47:37.947Z,98463.63
2023-03-26T00:50:41.660Z,98460.56
2023-03-26T00:53:46.377Z,98467.23
2023-03-26T00:56:49.026Z,98462.30
2023-03-26T00:59:51.654Z,98459.64
2023-03-26T01:02:58.916Z,98464.47
2023-03-26T01:06:09.545Z,98459.24
2023-03-26T01:09:18.836Z,98450.70
2023-03-26T01:12:24.040Z,98452.95
2023-03-26T01:15:30.067Z,98456.96
2023-03-26T01:18:41.019Z,98459.04
2023-03-26T01:21:43.759Z,98453.80
2023-03-26T01:24:53.213Z,98466.02
2023-03-26T01:27:57.364Z,98463.00
2023-03-26T01:31:29.940Z,98457.13
2023-03-26T01:34:59.178Z,98456.58
2023-03-26T01:38:23.461Z,98451.92
2023-03-26T01:41:37.055Z,98458.85
2023-03-26T01:44:50.048Z,98456.89
2023-03-26T01:47:53.334Z,98457.16
2023-03-26T01:50:58.948Z,98450.48
2023-03-26T01:54:06.036Z,98445.98
2023-03-26T01:57:31.906Z,98449.94
2023-03-26T02:00:54.474Z,98451.41
2023-03-26T02:04:06.289Z,98460.73
2023-03-26T02:07:25.500Z,98467.25
2023-03-26T02:10:33.975Z,98453.52
2023-03-26T02:13:38.130Z,98445.31
2023-03-26T02:16:41.033Z,98459.86
2023-03-26T02:19:43.711Z,98465.25
2023-03-26T02:22:47.316Z,98459.45
2023-03-26T02:25:49.832Z,98457.08
2023-03-26T02:28:52.587Z,98474.37
2023-03-26T02:31:55.375Z,98498.77
2023-03-26T02:35:03.189Z,98495.98
2023-03-26T02:38:06.747Z,98495.55
2023-03-26T02:41:09.980Z,98481.96
2023-03-26T02:44:12.593Z,98475.21
2023-03-26T02:47:15.412Z,98490.35
2023-03-26T02:50:18.028Z,98494.36
2023-03-26T02:53:21.898Z,98497.98
2023-03-26T02:56:24.639Z,98488.77
2023-03-26T02:59:28.006Z,98492.09
2023-03-26T03:02:30.789Z,98475.91
2023-03-26T03:05:34.262Z,98473.90
2023-03-26T03:08:36.903Z,98473.89
2023-03-26T03:11:40.772Z,98472.66
2023-03-26T03:14:43.832Z,98467.80
2023-03-26T03:17:47.033Z,98471.56
2023-03-26T03:20:50.051Z,98471.06
2023-03-26T03:23:53.749Z,98475.83
2023-03-26T03:26:58.060Z,98482.58
2023-03-26T03:30:00.816Z,98480.38
2023-03-26T03:33:03.784Z,98476.96
2023-03-26T03:36:10.529Z,98479.00
2023-03-26T03:39:23.827Z,98484.61
2023-03-26T03:42:27.739Z,98481.88
2023-03-26T03:45:30.393Z,98487.74
2023-03-26T03:48:33.573Z,98482.64
2023-03-26T03:51:36.256Z,98488.73
2023-03-26T03:54:38.883Z,98488.27
2023-03-26T03:57:46.240Z,98485.36
2023-03-26T04:00:52.654Z,98487.19
2023-03-26T04:03:55.499Z,98484.73
2023-03-26T04:07:00.492Z,98482.61
2023-03-26T04:10:04.432Z,98488.41
2023-03-26T04:13:07.008Z,98499.27
2023-03-26T04:16:10.286Z,98488.86
2023-03-26T04:19:14.429Z,98488.52
2023-03-26T04:22:18.521Z,98486.45
2023-03-26T04:25:21.553Z,98488.20
2023-03-26T04:28:32.626Z,98488.97
2023-03-26T04:31:36.382Z,98484.86
2023-03-26T04:34:39.192Z,98487.16
2023-03-26T04:37:44.449Z,98489.56
2023-03-26T04:40:49.992Z,98480.38
2023-03-26T04:43:53.748Z,98485.45
2023-03-26T04:46:56.388Z,98491.09
2023-03-26T04:49:59.018Z,98485.40
2023-03-26T04:53:02.563Z,98494.08
2023-03-26T04:56:32.860Z,98495.92
2023-03-26T04:59:41.373Z,98498.40
2023-03-26T05:02:44.040Z,98489.88
2023-03-26T05:05:46.872Z,98498.36
2023-03-26T05:08:49.534Z,98499.78
2023-03-26T05:11:58.487Z,98505.31
2023-03-26T05:15:01.146Z,98509.52
2023-03-26T05:18:04.272Z,98505.48
2023-03-26T05:21:07.398Z,98506.16
2023-03-26T05:24:10.263Z,98510.39
2023-03-26T05:27:20.408Z,98512.50
2023-03-26T05:30:23.049Z,98520.13
2023-03-26T05:33:25.919Z,98518.29
2023-03-26T05:36:28.780Z,98514.97
2023-03-26T05:39:31.429Z,98516.52
2023-03-26T05:42:34.004Z,98514.31
2023-03-26T05:45:36.705Z,98509.77
2023-03-26T05:48:39.547Z,98515.55
2023-03-26T05:51:42.426Z,98520.48
2023-03-26T05:54:45.122Z,98516.71
2023-03-26T05:57:47.710Z,98514.29
2023-03-26T06:01:00.055Z,98521.88
2023-03-26T06:04:02.948Z,98524.64
2023-03-26T06:07:10.118Z,98520.25
2023-03-26T06:10:18.105Z,98527.89
2023-03-26T06:13:21.486Z,98527.92
2023-03-26T06:16:27.333Z,98538.00
2023-03-26T06:19:31.933Z,98538.52
2023-03-26T06:22:34.552Z,98539.59
2023-03-26T06:25:37.804Z,98549.75
2023-03-26T06:28:40.531Z,98555.15
2023-03-26T06:31:43.201Z,98548.02
2023-03-26T06:34:46.029Z,98544.69
2023-03-26T06:37:48.618Z,98555.27
2023-03-26T06:40:51.830Z,98554.55
2023-03-26T06:43:54.700Z,98552.01
2023-03-26T06:46:57.389Z,98554.87
2023-03-26T06:50:00.255Z,98555.73
2023-03-26T06:53:03.012Z,98551.04
2023-03-26T06:56:08.490Z,98556.65
2023-03-26T06:59:11.772Z,98560.55
2023-03-26T07:02:14.764Z,98566.95
2023-03-26T07:05:17.700Z,98571.10
2023-03-26T07:08:20.884Z,98558.02
2023-03-26T07:11:25.688Z,98564.06
2023-03-26T07:14:30.587Z,98561.95
2023-03-26T07:17:33.270Z,98556.09
2023-03-26T07:20:36.153Z,98555.77
2023-03-26T07:23:39.115Z,98561.54
2023-03-26T07:27:05.370Z,98561.61
2023-03-26T07:30:43.117Z,98563.21
2023-03-26T07:34:26.747Z,98568.88
2023-03-26T07:37:47.594Z,98565.48
2023-03-26T07:41:16.910Z,98561.70
2023-03-26T07:44:25.568Z,98556.52
2023-03-26T07:47:37.606Z,98559.20
2023-03-26T07:50:40.968Z,98552.83
2023-03-26T07:53:43.828Z,98560.54
2023-03-26T07:56:58.794Z,98549.58
2023-03-26T08:00:12.399Z,98543.73
2023-03-26T08:04:23.424Z,98546.63
2023-03-26T08:07:30.203Z,98549.09
2023-03-26T08:10:52.626Z,98550.27
2023-03-26T08:14:29.922Z,98540.07
2023-03-26T08:17:42.917Z,98546.95
2023-03-26T08:20:49.596Z,98540.60
2023-03-26T08:24:07.401Z,98544.91
2023-03-26T08:27:22.838Z,98548.76
2023-03-26T08:30:27.340Z,98548.48
2023-03-26T08:33:31.200Z,98547.10
2023-03-26T08:36:34.288Z,98550.82
2023-03-26T08:39:42.078Z,98546.73
2023-03-26T08:43:20.929Z,98544.98
2023-03-26T08:46:33.016Z,98543.35
2023-03-26T08:50:03.448Z,98542.60
2023-03-26T08:53:12.310Z,98553.14
2023-03-26T08:56:44.434Z,98544.73
2023-03-26T09:00:06.034Z,98550.28
2023-03-26T09:03:28.465Z,98551.69
2023-03-26T09:07:07.148Z,98536.44
2023-03-26T09:10:26.972Z,98537.61
2023-03-26T09:13:56.975Z,98539.69
2023-03-26T09:17:18.036Z,98541.04
2023-03-26T09:20:42.695Z,98540.13
2023-03-26T09:23:52.766Z,98536.19
2023-03-26T09:27:00.620Z,98548.64
2023-03-26T09:30:48.402Z,98542.90
2023-03-26T09:34:03.161Z,98541.87
2023-03-26T09:37:18.741Z,98541.80
2023-03-26T09:40:32.613Z,98538.35
2023-03-26T09:43:46.044Z,98528.68
2023-03-26T09:47:26.515Z,98523.20
2023-03-26T09:50:44.313Z,98525.23
2023-03-26T09:54:10.537Z,98538.69
2023-03-26T09:57:46.780Z,98525.00
2023-03-26T10:01:32.262Z,98522.30
2023-03-26T10:05:00.472Z,98511.70
2023-03-26T10:08:47.525Z,98512.33
2023-03-26T10:12:12.054Z,98512.30
2023-03-26T10:15:36.610Z,98516.85
2023-03-26T10:18:49.103Z,98507.75
2023-03-26T10:22:10.721Z,98519.14
2023-03-26T10:25:33.302Z,98511.66
2023-03-26T10:28:51.071Z,98513.99
2023-03-26T10:32:06.662Z,98512.25
2023-03-26T10:35:23.519Z,98511.45
2023-03-26T10:38:58.853Z,98507.55
2023-03-26T10:42:35.374Z,98503.23
2023-03-26T10:46:10.002Z,98508.87
2023-03-26T10:49:15.741Z,98508.84
2023-03-26T10:52:22.720Z,98514.58
2023-03-26T10:55:32.944Z,98508.82
2023-03-26T10:58:48.783Z,98517.12
2023-03-26T11:02:41.014Z,98518.10
2023-03-26T11:05:47.045Z,98519.18
2023-03-26T11:09:12.418Z,98520.92
2023-03-26T11:12:26.532Z,98511.32
2023-03-26T11:15:38.558Z,98505.49
2023-03-26T11:18:51.224Z,98514.94
2023-03-26T11:22:03.632Z,98512.03
2023-03-26T11:25:48.710Z,98513.35
2023-03-26T11:29:32.877Z,98513.53
2023-03-26T11:32:41.477Z,98514.91
2023-03-26T11:35:48.863Z,98512.73
2023-03-26T11:38:51.578Z,98506.27
2023-03-26T11:42:06.269Z,98514.21
2023-03-26T11:45:19.211Z,98502.38
2023-03-26T11:48:41.866Z,98499.27
2023-03-26T11:51:47.932Z,98489.05
2023-03-26T11:54:50.794Z,98488.34
2023-03-26T11:57:58.204Z,98482.27
2023-03-26T12:01:05.497Z,98476.02
2023-03-26T12:04:15.957Z,98462.32
2023-03-26T12:07:31.886Z,98470.17
2023-03-26T12:10:42.972Z,98458.98
2023-03-26T12:14:06.006Z,98460.05
2023-03-26T12:17:14.478Z,98454.88
2023-03-26T12:20:25.997Z,98461.00
2023-03-26T12:23:59.280Z,98457.55
2023-03-26T12:27:20.405Z,98456.20
2023-03-26T12:30:25.418Z,98450.16
2023-03-26T12:33:34.302Z,98442.20
2023-03-26T12:36:38.975Z,98442.02
2023-03-26T12:40:10.011Z,98437.95
2023-03-26T12:44:54.890Z,98430.16
2023-03-26T12:47:58.862Z,98427.96
2023-03-26T12:51:03.560Z,98431.77
2023-03-26T12:54:44.863Z,98428.95
2023-03-26T12:58:13.489Z,98418.13
2023-03-26T13:01:37.667Z,98414.05
2023-03-26T13:05:05.010Z,98407.48
2023-03-26T13:08:35.099Z,98408.42
2023-03-26T13:11:54.888Z,98408.44
2023-03-26T13:15:32.124Z,98413.63
2023-03-26T13:19:04.560Z,98421.66
2023-03-26T13:22:24.668Z,98427.33
2023-03-26T13:25:53.312Z,98426.89
2023-03-26T13:29:01.919Z,98431.31
2023-03-26T13:32:19.002Z,98434.05
2023-03-26T13:35:42.581Z,98434.58
2023-03-26T13:38:58.573Z,98430.86
2023-03-26T13:42:26.756Z,98424.36
2023-03-26T13:45:32.296Z,98420.55
2023-03-26T13:48:53.054Z,98422.63
2023-03-26T13:52:12.081Z,98417.88
2023-03-26T13:55:43.268Z,98419.36
2023-03-26T13:59:15.102Z,98415.36
2023-03-26T14:02:40.060Z,98418.69
2023-03-26T14:05:47.140Z,98419.14
2023-03-26T14:08:57.454Z,98421.79
2023-03-26T14:12:21.233Z,98413.09
2023-03-26T14:15:24.462Z,98415.98
2023-03-26T14:18:30.820Z,98409.06
2023-03-26T14:21:52.030Z,98408.39
2023-03-26T14:25:11.948Z,98415.33
2023-03-26T14:29:02.836Z,98415.08
2023-03-26T14:32:29.714Z,98415.86
2023-03-26T14:35:53.034Z,98412.39
2023-03-26T14:39:16.723Z,98408.86
2023-03-26T14:42:34.163Z,98410.04
2023-03-26T14:45:48.837Z,98407.15
2023-03-26T14:49:03.174Z,98400.73
2023-03-26T14:52:20.474Z,98393.43
2023-03-26T14:55:32.099Z,98387.83
2023-03-26T14:59:01.896Z,98383.04
2023-03-26T15:02:23.090Z,98383.21
2023-03-26T15:05:52.183Z,98379.80
2023-03-26T15:09:21.435Z,98377.20
2023-03-26T15:12:50.994Z,98375.19
2023-03-26T15:16:21.111Z,98372.90
2023-03-26T15:19:44.696Z,98376.44
2023-03-26T15:23:11.963Z,98376.07
2023-03-26T15:26:17.402Z,98372.63
2023-03-26T15:29:34.100Z,98369.25
2023-03-26T15:32:57.884Z,98370.73
2023-03-26T15:36:19.170Z,98372.14
2023-03-26T15:39:59.690Z,98371.56
2023-03-26T15:43:14.542Z,98369.66
2023-03-26T15:46:58.261Z,98367.29
2023-03-26T15:50:13.035Z,98362.30
2023-03-26T15:53:18.757Z,98368.55
2023-03-26T15:56:49.370Z,98359.52
2023-03-26T16:00:22.962Z,98356.27
2023-03-26T16:04:03.514Z,98357.41
2023-03-26T16:07:39.223Z,98356.02
2023-03-26T16:10:51.516Z,98350.56
2023-03-26T16:14:17.372Z,98347.95
2023-03-26T16:17:25.929Z,98349.81
2023-03-26T16:20:35.013Z,98349.81
2023-03-26T16:23:47.650Z,98346.86
2023-03-26T16:27:05.492Z,98345.93
2023-03-26T16:30:16.128Z,98346.12
2023-03-26T16:33:21.299Z,98346.00
2023-03-26T16:36:41.978Z,98345.77
2023-03-26T16:39:44.887Z,98347.27
2023-03-26T16:43:07.585Z,98347.20
2023-03-26T16:46:26.480Z,98349.52
2023-03-26T16:49:44.754Z,98349.98
2023-03-26T16:52:55.177Z,98347.27
2023-03-26T16:56:13.907Z,98348.54
2023-03-26T16:59:40.192Z,98347.20
2023-03-26T17:03:13.087Z,98349.00
2023-03-26T17:06:23.374Z,98351.92
2023-03-26T17:09:42.804Z,98352.13
2023-03-26T17:13:00.956Z,98357.80
2023-03-26T17:16:16.320Z,98356.83
2023-03-26T17:19:32.287Z,98360.79
2023-03-26T17:22:45.229Z,98363.30
2023-03-26T17:26:06.029Z,98365.02
2023-03-26T17:29:23.993Z,98366.73
2023-03-26T17:33:16.445Z,98367.17
2023-03-26T17:36:50.790Z,98368.69
2023-03-26T17:40:06.342Z,98368.98
2023-03-26T17:43:12.562Z,98367.93
2023-03-26T17:46:33.500Z,98369.67
2023-03-26T17:49:38.466Z,98370.52
2023-03-26T17:52:48.191Z,98369.09
2023-03-26T17:55:52.321Z,98370.33
2023-03-26T17:59:11.858Z,98374.60
2023-03-26T18:02:30.335Z,98374.29
2023-03-26T18:05:34.616Z,98377.39
2023-03-26T18:09:07.223Z,98374.81
2023-03-26T18:12:29.036Z,98378.27
2023-03-26T18:15:45.029Z,98378.70
2023-03-26T18:19:00.548Z,98383.36
2023-03-26T18:22:05.294Z,98396.83
2023-03-26T18:25:30.509Z,98393.54
2023-03-26T18:28:40.522Z,98388.73
2023-03-26T18:32:16.452Z,98388.19
2023-03-26T18:35:21.963Z,98391.00
2023-03-26T18:38:35.441Z,98386.34
2023-03-26T18:41:46.845Z,98382.55
2023-03-26T18:44:51.160Z,98393.46
2023-03-26T18:47:57.114Z,98391.11
2023-03-26T18:51:05.062Z,98383.36
2023-03-26T18:54:14.171Z,98382.00
2023-03-26T18:57:26.000Z,98380.57
2023-03-26T19:00:30.392Z,98379.84
2023-03-26T19:03:40.369Z,98376.06
2023-03-26T19:06:44.977Z,98374.71
2023-03-26T19:09:48.973Z,98378.55
2023-03-26T19:12:58.470Z,98374.56
2023-03-26T19:16:08.780Z,98371.17
2023-03-26T19:19:25.642Z,98371.58
2023-03-26T19:22:29.802Z,98373.21
2023-03-26T19:25:40.823Z,98372.02
2023-03-26T19:28:50.846Z,98369.77
2023-03-26T19:32:03.043Z,98367.42
2023-03-26T19:35:21.515Z,98370.16
2023-03-26T19:38:37.832Z,98370.77
2023-03-26T19:41:44.146Z,98368.05
2023-03-26T19:44:47.949Z,98368.50
2023-03-26T19:51:18.597Z,98366.75
2023-03-26T19:51:36.495Z,98360.80
2023-03-26T19:55:17.943Z,98354.07
2023-03-26T19:58:20.545Z,98350.52
2023-03-26T20:01:25.701Z,98346.27
2023-03-26T20:04:32.538Z,98353.20
2023-03-26T20:07:39.361Z,98353.97
2023-03-26T20:10:43.790Z,98355.94
2023-03-26T20:13:48.562Z,98351.53
2023-03-26T20:16:52.209Z,98349.02
2023-03-26T20:19:54.862Z,98347.52
2023-03-26T20:22:57.677Z,98344.08
2023-03-26T20:26:00.197Z,98342.28
2023-03-26T20:29:04.145Z,98334.23
2023-03-26T20:32:18.742Z,98333.98
2023-03-26T20:35:35.843Z,98333.83
2023-03-26T20:38:41.016Z,98335.55
2023-03-26T20:41:48.447Z,98341.63
2023-03-26T20:44:51.069Z,98338.61
2023-03-26T20:47:54.256Z,98338.97
2023-03-26T20:50:57.107Z,98336.22
2023-03-26T20:54:00.668Z,98336.59
2023-03-26T20:57:05.448Z,98340.30
2023-03-26T21:00:23.295Z,98335.41
2023-03-26T21:03:25.878Z,98334.64
2023-03-26T21:06:28.497Z,98332.28
2023-03-26T21:09:35.533Z,98332.89
2023-03-26T21:12:57.343Z,98333.77
2023-03-26T21:16:01.020Z,98333.67
2023-03-26T21:19:04.502Z,98335.02
2023-03-26T21:22:20.827Z,98332.02
2023-03-26T21:26:06.369Z,98335.87
2023-03-26T21:29:11.894Z,98343.84
2023-03-26T21:32:14.836Z,98344.02
2023-03-26T21:35:18.200Z,98344.15
2023-03-26T21:38:22.234Z,98342.03
2023-03-26T21:41:41.447Z,98347.41
2023-03-26T21:44:44.121Z,98343.88
2023-03-26T21:47:47.554Z,98346.43
2023-03-26T21:50:50.791Z,98350.39
2023-03-26T21:53:53.626Z,98349.81
2023-03-26T21:57:24.534Z,98346.52
2023-03-26T22:00:43.450Z,98348.23
2023-03-26T22:03:57.094Z,98350.42
2023-03-26T22:07:41.574Z,98351.66
2023-03-26T22:10:52.265Z,98354.52
2023-03-26T22:13:56.858Z,98359.58
2023-03-26T22:16:59.541Z,98357.93
2023-03-26T22:20:08.004Z,98353.94
2023-03-26T22:23:12.524Z,98355.09
2023-03-26T22:26:15.277Z,98356.90
2023-03-26T22:29:18.176Z,98361.68
2023-03-26T22:32:21.264Z,98360.27
2023-03-26T22:35:24.342Z,98362.41
2023-03-26T22:38:26.956Z,98369.84
2023-03-26T22:41:29.755Z,98371.79
2023-03-26T22:44:32.510Z,98378.86
2023-03-26T22:47:35.701Z,98386.15
2023-03-26T22:50:38.381Z,98390.50
2023-03-26T22:53:41.201Z,98394.31
2023-03-26T22:56:44.238Z,98397.23
2023-03-26T22:59:49.044Z,98400.00
2023-03-26T23:02:52.104Z,98405.51
2023-03-26T23:05:57.267Z,98417.67
2023-03-26T23:08:59.887Z,98426.30
2023-03-26T23:12:03.721Z,98434.60
2023-03-26T23:15:06.924Z,98440.08
2023-03-26T23:18:09.679Z,98445.64
2023-03-26T23:21:22.459Z,98449.86
2023-03-26T23:24:27.909Z,98454.48
2023-03-26T23:27:30.532Z,98459.23
2023-03-26T23:30:34.134Z,98462.52
2023-03-26T23:33:39.038Z,98462.55
2023-03-26T23:36:42.463Z,98461.29
2023-03-26T23:39:46.764Z,98467.50
2023-03-26T23:42:49.616Z,98465.73
2023-03-26T23:45:52.437Z,98470.09
2023-03-26T23:48:55.210Z,98472.59
2023-03-26T23:51:57.803Z,98471.54
2023-03-26T23:55:00.443Z,98480.02
2023-03-26T23:58:03.488Z,98476.25
